sensor_id;sensor_type;location;lat;lon;timestamp;temperature;humidity
60717;DHT22;46566;52.700;6.192;2022-10-16T00:01:51;12.90;99.90
60717;DHT22;46566;52.700;6.192;2022-10-16T00:04:17;12.90;99.90
60717;DHT22;46566;52.700;6.192;2022-10-16T00:06:42;12.90;99.90
60717;DHT22;46566;52.700;6.192;2022-10-16T00:09:08;12.90;99.90
60717;DHT22;46566;52.700;6.192;2022-10-16T00:11:36;12.90;99.90
60717;DHT22;46566;52.700;6.192;2022-10-16T00:14:05;12.90;99.90
60717;DHT22;46566;52.700;6.192;2022-10-16T00:16:31;12.90;99.90
60717;DHT22;46566;52.700;6.192;2022-10-16T00:18:57;12.90;99.90
60717;DHT22;46566;52.700;6.192;2022-10-16T00:21:26;12.90;99.90
60717;DHT22;46566;52.700;6.192;2022-10-16T00:23:58;12.80;99.90
60717;DHT22;46566;52.700;6.192;2022-10-16T00:26:25;12.90;99.90
60717;DHT22;46566;52.700;6.192;2022-10-16T00:28:52;12.90;99.90
60717;DHT22;46566;52.700;6.192;2022-10-16T00:31:19;12.90;99.90
60717;DHT22;46566;52.700;6.192;2022-10-16T00:33:45;12.90;99.90
60717;DHT22;46566;52.700;6.192;2022-10-16T00:36:14;12.90;99.90
60717;DHT22;46566;52.700;6.192;2022-10-16T00:38:40;12.90;99.90
60717;DHT22;46566;52.700;6.192;2022-10-16T00:41:07;13.00;99.90
60717;DHT22;46566;52.700;6.192;2022-10-16T00:43:45;13.00;99.90
60717;DHT22;46566;52.700;6.192;2022-10-16T00:49:17;13.00;99.90
60717;DHT22;46566;52.700;6.192;2022-10-16T00:51:47;13.00;99.90
60717;DHT22;46566;52.700;6.192;2022-10-16T00:54:19;13.00;99.90
60717;DHT22;46566;52.700;6.192;2022-10-16T00:56:46;13.00;99.90
60717;DHT22;46566;52.700;6.192;2022-10-16T00:59:19;13.00;99.90
60717;DHT22;46566;52.700;6.192;2022-10-16T01:01:45;13.00;99.90
60717;DHT22;46566;52.700;6.192;2022-10-16T01:04:11;13.00;99.90
60717;DHT22;46566;52.700;6.192;2022-10-16T01:07:09;13.00;99.90
60717;DHT22;46566;52.700;6.192;2022-10-16T01:09:54;13.10;99.90
60717;DHT22;46566;52.700;6.192;2022-10-16T01:15:04;13.00;99.90
60717;DHT22;46566;52.700;6.192;2022-10-16T01:17:40;13.00;99.90
60717;DHT22;46566;52.700;6.192;2022-10-16T01:20:20;13.00;99.90
60717;DHT22;46566;52.700;6.192;2022-10-16T01:28:34;13.00;99.90
60717;DHT22;46566;52.700;6.192;2022-10-16T01:31:02;13.00;99.90
60717;DHT22;46566;52.700;6.192;2022-10-16T01:33:35;12.90;99.90
60717;DHT22;46566;52.700;6.192;2022-10-16T01:36:09;13.00;99.90
60717;DHT22;46566;52.700;6.192;2022-10-16T01:38:38;13.00;99.90
60717;DHT22;46566;52.700;6.192;2022-10-16T01:41:11;13.00;99.90
60717;DHT22;46566;52.700;6.192;2022-10-16T01:43:45;13.00;99.90
60717;DHT22;46566;52.700;6.192;2022-10-16T01:46:12;13.00;99.90
60717;DHT22;46566;52.700;6.192;2022-10-16T01:48:41;12.90;99.90
60717;DHT22;46566;52.700;6.192;2022-10-16T01:51:10;13.00;99.90
60717;DHT22;46566;52.700;6.192;2022-10-16T01:53:38;12.90;99.90
60717;DHT22;46566;52.700;6.192;2022-10-16T01:56:08;12.90;99.90
60717;DHT22;46566;52.700;6.192;2022-10-16T01:58:37;12.90;99.90
60717;DHT22;46566;52.700;6.192;2022-10-16T02:01:08;12.90;99.90
60717;DHT22;46566;52.700;6.192;2022-10-16T02:03:37;12.90;99.90
60717;DHT22;46566;52.700;6.192;2022-10-16T02:06:03;12.90;99.90
60717;DHT22;46566;52.700;6.192;2022-10-16T02:08:29;12.90;99.90
60717;DHT22;46566;52.700;6.192;2022-10-16T02:10:57;12.90;99.90
60717;DHT22;46566;52.700;6.192;2022-10-16T02:13:34;12.90;99.90
60717;DHT22;46566;52.700;6.192;2022-10-16T02:16:01;12.90;99.90
60717;DHT22;46566;52.700;6.192;2022-10-16T02:18:27;12.90;99.90
60717;DHT22;46566;52.700;6.192;2022-10-16T02:23:37;12.90;99.90
60717;DHT22;46566;52.700;6.192;2022-10-16T02:26:10;12.90;99.90
60717;DHT22;46566;52.700;6.192;2022-10-16T02:28:52;13.00;99.90
60717;DHT22;46566;52.700;6.192;2022-10-16T02:31:24;12.90;99.90
60717;DHT22;46566;52.700;6.192;2022-10-16T02:33:54;12.90;99.90
60717;DHT22;46566;52.700;6.192;2022-10-16T02:36:23;12.90;99.90
60717;DHT22;46566;52.700;6.192;2022-10-16T02:38:49;12.90;99.90
60717;DHT22;46566;52.700;6.192;2022-10-16T02:41:15;12.80;99.90
60717;DHT22;46566;52.700;6.192;2022-10-16T02:43:41;12.90;99.90
60717;DHT22;46566;52.700;6.192;2022-10-16T02:46:07;12.90;99.90
60717;DHT22;46566;52.700;6.192;2022-10-16T02:48:33;12.90;99.90
60717;DHT22;46566;52.700;6.192;2022-10-16T02:50:58;12.80;99.90
60717;DHT22;46566;52.700;6.192;2022-10-16T02:53:24;12.80;99.90
60717;DHT22;46566;52.700;6.192;2022-10-16T02:55:50;12.90;99.90
60717;DHT22;46566;52.700;6.192;2022-10-16T02:58:15;12.80;99.90
60717;DHT22;46566;52.700;6.192;2022-10-16T03:00:41;12.90;99.90
60717;DHT22;46566;52.700;6.192;2022-10-16T03:03:07;12.80;99.90
60717;DHT22;46566;52.700;6.192;2022-10-16T03:05:33;12.80;99.90
60717;DHT22;46566;52.700;6.192;2022-10-16T03:07:59;12.90;99.90
60717;DHT22;46566;52.700;6.192;2022-10-16T03:10:26;12.80;99.90
60717;DHT22;46566;52.700;6.192;2022-10-16T03:12:52;12.90;99.90
60717;DHT22;46566;52.700;6.192;2022-10-16T03:15:17;12.90;99.90
60717;DHT22;46566;52.700;6.192;2022-10-16T03:17:43;12.90;99.90
60717;DHT22;46566;52.700;6.192;2022-10-16T03:20:09;12.90;99.90
60717;DHT22;46566;52.700;6.192;2022-10-16T03:22:35;12.90;99.90
60717;DHT22;46566;52.700;6.192;2022-10-16T03:25:00;13.00;99.90
60717;DHT22;46566;52.700;6.192;2022-10-16T03:27:26;13.00;99.90
60717;DHT22;46566;52.700;6.192;2022-10-16T03:29:52;13.00;99.90
60717;DHT22;46566;52.700;6.192;2022-10-16T03:32:17;13.00;99.90
60717;DHT22;46566;52.700;6.192;2022-10-16T03:34:45;13.00;99.90
60717;DHT22;46566;52.700;6.192;2022-10-16T03:37:11;13.00;99.90
60717;DHT22;46566;52.700;6.192;2022-10-16T03:39:36;12.90;99.90
60717;DHT22;46566;52.700;6.192;2022-10-16T03:42:02;12.90;99.90
60717;DHT22;46566;52.700;6.192;2022-10-16T03:44:28;12.90;99.90
60717;DHT22;46566;52.700;6.192;2022-10-16T03:46:53;12.80;99.90
60717;DHT22;46566;52.700;6.192;2022-10-16T03:49:19;12.80;99.90
60717;DHT22;46566;52.700;6.192;2022-10-16T03:51:44;12.80;99.90
60717;DHT22;46566;52.700;6.192;2022-10-16T03:54:10;12.70;99.90
60717;DHT22;46566;52.700;6.192;2022-10-16T03:56:36;12.80;99.90
60717;DHT22;46566;52.700;6.192;2022-10-16T03:59:02;12.70;99.90
60717;DHT22;46566;52.700;6.192;2022-10-16T04:01:27;12.70;99.90
60717;DHT22;46566;52.700;6.192;2022-10-16T04:03:53;12.70;99.90
60717;DHT22;46566;52.700;6.192;2022-10-16T04:06:19;12.70;99.90
60717;DHT22;46566;52.700;6.192;2022-10-16T04:08:45;12.70;99.90
60717;DHT22;46566;52.700;6.192;2022-10-16T04:11:11;12.70;99.90
60717;DHT22;46566;52.700;6.192;2022-10-16T04:13:36;12.70;99.90
60717;DHT22;46566;52.700;6.192;2022-10-16T04:16:02;12.70;99.90
60717;DHT22;46566;52.700;6.192;2022-10-16T04:18:28;12.60;99.90
60717;DHT22;46566;52.700;6.192;2022-10-16T04:20:54;12.60;99.90
60717;DHT22;46566;52.700;6.192;2022-10-16T04:23:20;12.60;99.90
60717;DHT22;46566;52.700;6.192;2022-10-16T04:25:46;12.60;99.90
60717;DHT22;46566;52.700;6.192;2022-10-16T04:28:11;12.60;99.90
60717;DHT22;46566;52.700;6.192;2022-10-16T04:30:38;12.60;99.90
60717;DHT22;46566;52.700;6.192;2022-10-16T04:33:04;12.60;99.90
60717;DHT22;46566;52.700;6.192;2022-10-16T04:35:30;12.60;99.90
60717;DHT22;46566;52.700;6.192;2022-10-16T04:37:57;12.60;99.90
60717;DHT22;46566;52.700;6.192;2022-10-16T04:40:23;12.60;99.90
60717;DHT22;46566;52.700;6.192;2022-10-16T04:42:49;12.60;99.90
60717;DHT22;46566;52.700;6.192;2022-10-16T04:45:15;12.70;99.90
60717;DHT22;46566;52.700;6.192;2022-10-16T04:47:41;12.60;99.90
60717;DHT22;46566;52.700;6.192;2022-10-16T04:50:07;12.70;99.90
60717;DHT22;46566;52.700;6.192;2022-10-16T04:52:32;12.70;99.90
60717;DHT22;46566;52.700;6.192;2022-10-16T04:54:58;12.60;99.90
60717;DHT22;46566;52.700;6.192;2022-10-16T04:57:27;12.70;99.90
60717;DHT22;46566;52.700;6.192;2022-10-16T04:59:53;12.70;99.90
60717;DHT22;46566;52.700;6.192;2022-10-16T05:02:19;12.70;99.90
60717;DHT22;46566;52.700;6.192;2022-10-16T05:04:44;12.60;99.90
60717;DHT22;46566;52.700;6.192;2022-10-16T05:07:10;12.60;99.90
60717;DHT22;46566;52.700;6.192;2022-10-16T05:09:36;12.70;99.90
60717;DHT22;46566;52.700;6.192;2022-10-16T05:12:01;12.70;99.90
60717;DHT22;46566;52.700;6.192;2022-10-16T05:14:29;12.60;99.90
60717;DHT22;46566;52.700;6.192;2022-10-16T05:16:55;12.60;99.90
60717;DHT22;46566;52.700;6.192;2022-10-16T05:19:20;12.60;99.90
60717;DHT22;46566;52.700;6.192;2022-10-16T05:21:46;12.70;99.90
60717;DHT22;46566;52.700;6.192;2022-10-16T05:24:12;12.60;99.90
60717;DHT22;46566;52.700;6.192;2022-10-16T05:26:37;12.60;99.90
60717;DHT22;46566;52.700;6.192;2022-10-16T05:29:03;12.60;99.90
60717;DHT22;46566;52.700;6.192;2022-10-16T05:31:29;12.60;99.90
60717;DHT22;46566;52.700;6.192;2022-10-16T05:33:58;12.60;99.90
60717;DHT22;46566;52.700;6.192;2022-10-16T05:36:25;12.60;99.90
60717;DHT22;46566;52.700;6.192;2022-10-16T05:38:51;12.60;99.90
60717;DHT22;46566;52.700;6.192;2022-10-16T05:41:16;12.60;99.90
60717;DHT22;46566;52.700;6.192;2022-10-16T05:43:47;12.60;99.90
60717;DHT22;46566;52.700;6.192;2022-10-16T05:46:12;12.50;99.90
60717;DHT22;46566;52.700;6.192;2022-10-16T05:48:38;12.50;99.90
60717;DHT22;46566;52.700;6.192;2022-10-16T05:51:10;12.50;99.90
60717;DHT22;46566;52.700;6.192;2022-10-16T05:53:36;12.50;99.90
60717;DHT22;46566;52.700;6.192;2022-10-16T05:56:03;12.50;99.90
60717;DHT22;46566;52.700;6.192;2022-10-16T05:58:31;12.50;99.90
60717;DHT22;46566;52.700;6.192;2022-10-16T06:00:59;12.50;99.90
60717;DHT22;46566;52.700;6.192;2022-10-16T06:03:25;12.50;99.90
60717;DHT22;46566;52.700;6.192;2022-10-16T06:05:51;12.50;99.90
60717;DHT22;46566;52.700;6.192;2022-10-16T06:08:18;12.50;99.90
60717;DHT22;46566;52.700;6.192;2022-10-16T06:10:45;12.50;99.90
60717;DHT22;46566;52.700;6.192;2022-10-16T06:13:12;12.50;99.90
60717;DHT22;46566;52.700;6.192;2022-10-16T06:15:39;12.50;99.90
60717;DHT22;46566;52.700;6.192;2022-10-16T06:18:08;12.50;99.90
60717;DHT22;46566;52.700;6.192;2022-10-16T06:20:34;12.50;99.90
60717;DHT22;46566;52.700;6.192;2022-10-16T06:23:00;12.60;99.90
60717;DHT22;46566;52.700;6.192;2022-10-16T06:25:26;12.60;99.90
60717;DHT22;46566;52.700;6.192;2022-10-16T06:27:51;12.60;99.90
60717;DHT22;46566;52.700;6.192;2022-10-16T06:30:17;12.60;99.90
60717;DHT22;46566;52.700;6.192;2022-10-16T06:32:42;12.60;99.90
60717;DHT22;46566;52.700;6.192;2022-10-16T06:35:08;12.60;99.90
60717;DHT22;46566;52.700;6.192;2022-10-16T06:37:34;12.60;99.90
60717;DHT22;46566;52.700;6.192;2022-10-16T06:39:59;12.70;99.90
60717;DHT22;46566;52.700;6.192;2022-10-16T06:42:25;12.70;99.90
60717;DHT22;46566;52.700;6.192;2022-10-16T06:44:51;12.70;99.90
60717;DHT22;46566;52.700;6.192;2022-10-16T06:47:17;12.70;99.90
60717;DHT22;46566;52.700;6.192;2022-10-16T06:49:43;12.70;99.90
60717;DHT22;46566;52.700;6.192;2022-10-16T06:52:08;12.80;99.90
60717;DHT22;46566;52.700;6.192;2022-10-16T06:54:34;12.80;99.90
60717;DHT22;46566;52.700;6.192;2022-10-16T06:57:00;12.90;99.90
60717;DHT22;46566;52.700;6.192;2022-10-16T06:59:27;12.90;99.90
60717;DHT22;46566;52.700;6.192;2022-10-16T07:01:53;12.90;99.90
60717;DHT22;46566;52.700;6.192;2022-10-16T07:04:18;12.90;99.90
60717;DHT22;46566;52.700;6.192;2022-10-16T07:06:44;13.00;99.90
60717;DHT22;46566;52.700;6.192;2022-10-16T07:09:10;13.10;99.90
60717;DHT22;46566;52.700;6.192;2022-10-16T07:11:38;13.10;99.90
60717;DHT22;46566;52.700;6.192;2022-10-16T07:16:53;13.20;99.90
60717;DHT22;46566;52.700;6.192;2022-10-16T07:19:18;13.20;99.90
60717;DHT22;46566;52.700;6.192;2022-10-16T07:24:42;13.30;99.90
60717;DHT22;46566;52.700;6.192;2022-10-16T07:27:08;13.30;99.90
60717;DHT22;46566;52.700;6.192;2022-10-16T07:29:34;13.30;99.90
60717;DHT22;46566;52.700;6.192;2022-10-16T07:32:25;13.30;99.90
60717;DHT22;46566;52.700;6.192;2022-10-16T07:34:51;13.30;99.90
60717;DHT22;46566;52.700;6.192;2022-10-16T07:37:17;13.40;99.90
60717;DHT22;46566;52.700;6.192;2022-10-16T07:39:43;13.40;99.90
60717;DHT22;46566;52.700;6.192;2022-10-16T07:45:13;13.40;99.90
60717;DHT22;46566;52.700;6.192;2022-10-16T07:50:37;13.40;99.90
60717;DHT22;46566;52.700;6.192;2022-10-16T07:53:03;13.40;99.90
60717;DHT22;46566;52.700;6.192;2022-10-16T07:55:29;13.50;99.90
60717;DHT22;46566;52.700;6.192;2022-10-16T08:00:46;13.60;99.90
60717;DHT22;46566;52.700;6.192;2022-10-16T08:05:38;13.70;99.90
60717;DHT22;46566;52.700;6.192;2022-10-16T08:11:02;13.70;99.90
60717;DHT22;46566;52.700;6.192;2022-10-16T08:13:29;13.80;99.90
60717;DHT22;46566;52.700;6.192;2022-10-16T08:18:40;14.10;99.90
60717;DHT22;46566;52.700;6.192;2022-10-16T08:21:06;14.10;99.90
60717;DHT22;46566;52.700;6.192;2022-10-16T08:23:33;14.10;99.90
60717;DHT22;46566;52.700;6.192;2022-10-16T08:28:45;14.20;99.90
60717;DHT22;46566;52.700;6.192;2022-10-16T08:33:41;14.50;99.90
60717;DHT22;46566;52.700;6.192;2022-10-16T08:36:32;14.70;99.90
60717;DHT22;46566;52.700;6.192;2022-10-16T08:38:58;14.90;99.90
60717;DHT22;46566;52.700;6.192;2022-10-16T08:44:37;15.20;99.90
60717;DHT22;46566;52.700;6.192;2022-10-16T08:50:16;15.40;99.90
60717;DHT22;46566;52.700;6.192;2022-10-16T08:52:44;15.60;99.90
60717;DHT22;46566;52.700;6.192;2022-10-16T08:58:22;15.70;99.90
60717;DHT22;46566;52.700;6.192;2022-10-16T09:16:27;16.00;99.90
60717;DHT22;46566;52.700;6.192;2022-10-16T09:22:02;16.20;99.90
60717;DHT22;46566;52.700;6.192;2022-10-16T09:27:38;16.30;99.90
60717;DHT22;46566;52.700;6.192;2022-10-16T09:33:15;16.50;99.90
60717;DHT22;46566;52.700;6.192;2022-10-16T09:35:47;16.60;99.90
60717;DHT22;46566;52.700;6.192;2022-10-16T09:38:49;16.70;99.90
60717;DHT22;46566;52.700;6.192;2022-10-16T09:44:17;16.90;99.90
60717;DHT22;46566;52.700;6.192;2022-10-16T09:46:44;16.90;99.90
60717;DHT22;46566;52.700;6.192;2022-10-16T10:18:33;17.40;99.90
60717;DHT22;46566;52.700;6.192;2022-10-16T10:27:16;17.60;99.90
60717;DHT22;46566;52.700;6.192;2022-10-16T10:33:07;17.80;99.90
60717;DHT22;46566;52.700;6.192;2022-10-16T10:50:52;17.80;99.90
60717;DHT22;46566;52.700;6.192;2022-10-16T10:56:31;17.70;99.90
60717;DHT22;46566;52.700;6.192;2022-10-16T11:02:18;17.70;99.90
60717;DHT22;46566;52.700;6.192;2022-10-16T11:07:38;17.90;99.90
60717;DHT22;46566;52.700;6.192;2022-10-16T11:10:16;17.80;99.90
60717;DHT22;46566;52.700;6.192;2022-10-16T11:15:30;17.80;99.90
60717;DHT22;46566;52.700;6.192;2022-10-16T11:18:06;17.80;99.90
60717;DHT22;46566;52.700;6.192;2022-10-16T11:20:59;17.80;99.90
60717;DHT22;46566;52.700;6.192;2022-10-16T11:23:31;17.80;99.90
60717;DHT22;46566;52.700;6.192;2022-10-16T11:26:04;17.80;99.90
60717;DHT22;46566;52.700;6.192;2022-10-16T11:31:47;17.80;99.90
60717;DHT22;46566;52.700;6.192;2022-10-16T11:35:05;17.80;99.90
60717;DHT22;46566;52.700;6.192;2022-10-16T11:37:58;17.90;99.90
60717;DHT22;46566;52.700;6.192;2022-10-16T11:40:37;18.30;99.90
60717;DHT22;46566;52.700;6.192;2022-10-16T11:45:56;18.80;99.90
60717;DHT22;46566;52.700;6.192;2022-10-16T11:48:32;18.70;99.90
60717;DHT22;46566;52.700;6.192;2022-10-16T11:51:42;18.70;99.90
60717;DHT22;46566;52.700;6.192;2022-10-16T11:57:28;18.90;99.90
60717;DHT22;46566;52.700;6.192;2022-10-16T12:11:50;18.80;99.90
60717;DHT22;46566;52.700;6.192;2022-10-16T12:23:20;20.00;99.90
60717;DHT22;46566;52.700;6.192;2022-10-16T12:28:38;19.20;99.90
60717;DHT22;46566;52.700;6.192;2022-10-16T12:31:07;19.00;99.90
60717;DHT22;46566;52.700;6.192;2022-10-16T12:33:42;19.00;99.90
60717;DHT22;46566;52.700;6.192;2022-10-16T12:39:04;19.00;99.90
60717;DHT22;46566;52.700;6.192;2022-10-16T12:41:32;18.90;99.90
60717;DHT22;46566;52.700;6.192;2022-10-16T12:44:24;18.90;99.90
60717;DHT22;46566;52.700;6.192;2022-10-16T12:46:51;18.90;99.90
60717;DHT22;46566;52.700;6.192;2022-10-16T12:49:52;18.90;99.90
60717;DHT22;46566;52.700;6.192;2022-10-16T12:55:19;18.60;99.90
60717;DHT22;46566;52.700;6.192;2022-10-16T13:01:07;18.40;99.90
60717;DHT22;46566;52.700;6.192;2022-10-16T13:06:39;18.40;99.90
60717;DHT22;46566;52.700;6.192;2022-10-16T13:17:48;18.50;99.90
60717;DHT22;46566;52.700;6.192;2022-10-16T13:27:07;18.30;99.90
60717;DHT22;46566;52.700;6.192;2022-10-16T13:30:20;18.60;99.90
60717;DHT22;46566;52.700;6.192;2022-10-16T13:35:56;18.70;99.90
60717;DHT22;46566;52.700;6.192;2022-10-16T13:41:16;18.60;99.90
60717;DHT22;46566;52.700;6.192;2022-10-16T13:43:47;18.50;99.90
60717;DHT22;46566;52.700;6.192;2022-10-16T13:46:37;18.40;99.90
60717;DHT22;46566;52.700;6.192;2022-10-16T13:49:05;18.30;99.90
60717;DHT22;46566;52.700;6.192;2022-10-16T13:51:32;18.20;99.90
60717;DHT22;46566;52.700;6.192;2022-10-16T13:54:01;18.20;99.90
60717;DHT22;46566;52.700;6.192;2022-10-16T13:59:36;18.30;99.90
60717;DHT22;46566;52.700;6.192;2022-10-16T14:04:50;18.20;99.90
60717;DHT22;46566;52.700;6.192;2022-10-16T14:07:28;18.10;99.90
60717;DHT22;46566;52.700;6.192;2022-10-16T14:09:55;18.10;99.90
60717;DHT22;46566;52.700;6.192;2022-10-16T14:12:33;18.00;99.90
60717;DHT22;46566;52.700;6.192;2022-10-16T14:15:00;18.00;99.90
60717;DHT22;46566;52.700;6.192;2022-10-16T14:17:28;17.90;99.90
60717;DHT22;46566;52.700;6.192;2022-10-16T14:19:56;17.90;99.90
60717;DHT22;46566;52.700;6.192;2022-10-16T14:25:30;17.80;99.90
60717;DHT22;46566;52.700;6.192;2022-10-16T14:34:31;17.60;99.90
60717;DHT22;46566;52.700;6.192;2022-10-16T14:40:11;17.50;99.90
60717;DHT22;46566;52.700;6.192;2022-10-16T14:45:51;17.40;99.90
60717;DHT22;46566;52.700;6.192;2022-10-16T14:48:43;17.40;99.90
60717;DHT22;46566;52.700;6.192;2022-10-16T14:51:15;17.40;99.90
60717;DHT22;46566;52.700;6.192;2022-10-16T14:53:41;17.40;99.90
60717;DHT22;46566;52.700;6.192;2022-10-16T14:59:24;17.30;99.90
60717;DHT22;46566;52.700;6.192;2022-10-16T15:04:51;17.30;99.90
60717;DHT22;46566;52.700;6.192;2022-10-16T15:07:16;17.20;99.90
60717;DHT22;46566;52.700;6.192;2022-10-16T15:12:24;17.10;99.90
60717;DHT22;46566;52.700;6.192;2022-10-16T15:14:50;17.10;99.90
60717;DHT22;46566;52.700;6.192;2022-10-16T15:17:16;17.10;99.90
60717;DHT22;46566;52.700;6.192;2022-10-16T15:19:42;17.10;99.90
60717;DHT22;46566;52.700;6.192;2022-10-16T15:28:31;17.00;99.90
60717;DHT22;46566;52.700;6.192;2022-10-16T15:30:56;16.90;99.90
60717;DHT22;46566;52.700;6.192;2022-10-16T15:36:06;16.90;99.90
60717;DHT22;46566;52.700;6.192;2022-10-16T15:38:32;16.80;99.90
60717;DHT22;46566;52.700;6.192;2022-10-16T15:40:58;16.80;99.90
60717;DHT22;46566;52.700;6.192;2022-10-16T15:43:23;16.80;99.90
60717;DHT22;46566;52.700;6.192;2022-10-16T15:48:30;16.80;99.90
60717;DHT22;46566;52.700;6.192;2022-10-16T15:50:55;16.70;99.90
60717;DHT22;46566;52.700;6.192;2022-10-16T15:53:21;16.70;99.90
60717;DHT22;46566;52.700;6.192;2022-10-16T15:55:47;16.70;99.90
60717;DHT22;46566;52.700;6.192;2022-10-16T16:00:57;16.60;99.90
60717;DHT22;46566;52.700;6.192;2022-10-16T16:03:26;16.60;99.90
60717;DHT22;46566;52.700;6.192;2022-10-16T16:05:52;16.50;99.90
60717;DHT22;46566;52.700;6.192;2022-10-16T16:11:05;16.50;99.90
60717;DHT22;46566;52.700;6.192;2022-10-16T16:13:31;16.50;99.90
60717;DHT22;46566;52.700;6.192;2022-10-16T16:15:56;16.40;99.90
60717;DHT22;46566;52.700;6.192;2022-10-16T16:21:28;16.30;99.90
60717;DHT22;46566;52.700;6.192;2022-10-16T16:23:54;16.30;99.90
60717;DHT22;46566;52.700;6.192;2022-10-16T16:29:05;16.20;99.90
60717;DHT22;46566;52.700;6.192;2022-10-16T16:31:32;16.20;99.90
60717;DHT22;46566;52.700;6.192;2022-10-16T16:33:59;16.10;99.90
60717;DHT22;46566;52.700;6.192;2022-10-16T16:39:29;16.00;99.90
60717;DHT22;46566;52.700;6.192;2022-10-16T16:41:56;15.90;99.90
60717;DHT22;46566;52.700;6.192;2022-10-16T16:44:22;15.80;99.90
60717;DHT22;46566;52.700;6.192;2022-10-16T16:46:47;15.80;99.90
60717;DHT22;46566;52.700;6.192;2022-10-16T16:49:14;15.60;99.90
60717;DHT22;46566;52.700;6.192;2022-10-16T16:51:40;15.60;99.90
60717;DHT22;46566;52.700;6.192;2022-10-16T16:54:07;15.60;99.90
60717;DHT22;46566;52.700;6.192;2022-10-16T16:56:33;15.50;99.90
60717;DHT22;46566;52.700;6.192;2022-10-16T16:58:59;15.40;99.90
60717;DHT22;46566;52.700;6.192;2022-10-16T17:01:26;15.40;99.90
60717;DHT22;46566;52.700;6.192;2022-10-16T17:03:54;15.30;99.90
60717;DHT22;46566;52.700;6.192;2022-10-16T17:06:22;15.30;99.90
60717;DHT22;46566;52.700;6.192;2022-10-16T17:08:49;15.20;99.90
60717;DHT22;46566;52.700;6.192;2022-10-16T17:11:19;15.20;99.90
60717;DHT22;46566;52.700;6.192;2022-10-16T17:13:46;15.10;99.90
60717;DHT22;46566;52.700;6.192;2022-10-16T17:16:11;15.00;99.90
60717;DHT22;46566;52.700;6.192;2022-10-16T17:18:37;14.90;99.90
60717;DHT22;46566;52.700;6.192;2022-10-16T17:21:06;14.90;99.90
60717;DHT22;46566;52.700;6.192;2022-10-16T17:23:32;14.80;99.90
60717;DHT22;46566;52.700;6.192;2022-10-16T17:26:10;14.80;99.90
60717;DHT22;46566;52.700;6.192;2022-10-16T17:28:37;14.70;99.90
60717;DHT22;46566;52.700;6.192;2022-10-16T17:31:10;14.70;99.90
60717;DHT22;46566;52.700;6.192;2022-10-16T17:33:36;14.60;99.90
60717;DHT22;46566;52.700;6.192;2022-10-16T17:36:02;14.50;99.90
60717;DHT22;46566;52.700;6.192;2022-10-16T17:38:28;14.50;99.90
60717;DHT22;46566;52.700;6.192;2022-10-16T17:40:54;14.40;99.90
60717;DHT22;46566;52.700;6.192;2022-10-16T17:43:20;14.40;99.90
60717;DHT22;46566;52.700;6.192;2022-10-16T17:45:45;14.40;99.90
60717;DHT22;46566;52.700;6.192;2022-10-16T17:48:12;14.40;99.90
60717;DHT22;46566;52.700;6.192;2022-10-16T17:50:43;14.40;99.90
60717;DHT22;46566;52.700;6.192;2022-10-16T17:53:11;14.30;99.90
60717;DHT22;46566;52.700;6.192;2022-10-16T17:55:38;14.30;99.90
60717;DHT22;46566;52.700;6.192;2022-10-16T17:58:07;14.30;99.90
60717;DHT22;46566;52.700;6.192;2022-10-16T18:00:34;14.30;99.90
60717;DHT22;46566;52.700;6.192;2022-10-16T18:03:02;14.30;99.90
60717;DHT22;46566;52.700;6.192;2022-10-16T18:05:28;14.20;99.90
60717;DHT22;46566;52.700;6.192;2022-10-16T18:07:55;14.20;99.90
60717;DHT22;46566;52.700;6.192;2022-10-16T18:10:20;14.20;99.90
60717;DHT22;46566;52.700;6.192;2022-10-16T18:12:46;14.20;99.90
60717;DHT22;46566;52.700;6.192;2022-10-16T18:15:12;14.20;99.90
60717;DHT22;46566;52.700;6.192;2022-10-16T18:17:37;14.10;99.90
60717;DHT22;46566;52.700;6.192;2022-10-16T18:20:07;14.10;99.90
60717;DHT22;46566;52.700;6.192;2022-10-16T18:22:35;14.10;99.90
60717;DHT22;46566;52.700;6.192;2022-10-16T18:25:05;14.10;99.90
60717;DHT22;46566;52.700;6.192;2022-10-16T18:27:32;14.10;99.90
60717;DHT22;46566;52.700;6.192;2022-10-16T18:29:58;14.10;99.90
60717;DHT22;46566;52.700;6.192;2022-10-16T18:32:27;14.10;99.90
60717;DHT22;46566;52.700;6.192;2022-10-16T18:34:53;14.10;99.90
60717;DHT22;46566;52.700;6.192;2022-10-16T18:37:19;14.10;99.90
60717;DHT22;46566;52.700;6.192;2022-10-16T18:39:46;14.00;99.90
60717;DHT22;46566;52.700;6.192;2022-10-16T18:42:13;14.00;99.90
60717;DHT22;46566;52.700;6.192;2022-10-16T18:44:42;14.00;99.90
60717;DHT22;46566;52.700;6.192;2022-10-16T18:47:07;14.00;99.90
60717;DHT22;46566;52.700;6.192;2022-10-16T18:49:36;14.00;99.90
60717;DHT22;46566;52.700;6.192;2022-10-16T18:52:02;14.00;99.90
60717;DHT22;46566;52.700;6.192;2022-10-16T18:54:28;13.90;99.90
60717;DHT22;46566;52.700;6.192;2022-10-16T18:56:54;13.90;99.90
60717;DHT22;46566;52.700;6.192;2022-10-16T18:59:20;13.90;99.90
60717;DHT22;46566;52.700;6.192;2022-10-16T19:01:48;13.90;99.90
60717;DHT22;46566;52.700;6.192;2022-10-16T19:04:16;13.90;99.90
60717;DHT22;46566;52.700;6.192;2022-10-16T19:06:44;13.80;99.90
60717;DHT22;46566;52.700;6.192;2022-10-16T19:09:11;13.80;99.90
60717;DHT22;46566;52.700;6.192;2022-10-16T19:11:37;13.80;99.90
60717;DHT22;46566;52.700;6.192;2022-10-16T19:14:02;13.80;99.90
60717;DHT22;46566;52.700;6.192;2022-10-16T19:16:30;13.70;99.90
60717;DHT22;46566;52.700;6.192;2022-10-16T19:18:58;13.70;99.90
60717;DHT22;46566;52.700;6.192;2022-10-16T19:21:25;13.70;99.90
60717;DHT22;46566;52.700;6.192;2022-10-16T19:23:53;13.70;99.90
60717;DHT22;46566;52.700;6.192;2022-10-16T19:26:19;13.70;99.90
60717;DHT22;46566;52.700;6.192;2022-10-16T19:28:46;13.70;99.90
60717;DHT22;46566;52.700;6.192;2022-10-16T19:31:15;13.70;99.90
60717;DHT22;46566;52.700;6.192;2022-10-16T19:33:41;13.70;99.90
60717;DHT22;46566;52.700;6.192;2022-10-16T19:36:13;13.70;99.90
60717;DHT22;46566;52.700;6.192;2022-10-16T19:38:40;13.70;99.90
60717;DHT22;46566;52.700;6.192;2022-10-16T19:41:14;13.60;99.90
60717;DHT22;46566;52.700;6.192;2022-10-16T19:43:41;13.60;99.90
60717;DHT22;46566;52.700;6.192;2022-10-16T19:46:21;13.50;99.90
60717;DHT22;46566;52.700;6.192;2022-10-16T19:48:48;13.50;99.90
60717;DHT22;46566;52.700;6.192;2022-10-16T19:51:17;13.50;99.90
60717;DHT22;46566;52.700;6.192;2022-10-16T19:53:44;13.50;99.90
60717;DHT22;46566;52.700;6.192;2022-10-16T19:56:12;13.50;99.90
60717;DHT22;46566;52.700;6.192;2022-10-16T19:58:39;13.50;99.90
60717;DHT22;46566;52.700;6.192;2022-10-16T20:01:05;13.50;99.90
60717;DHT22;46566;52.700;6.192;2022-10-16T20:03:31;13.50;99.90
60717;DHT22;46566;52.700;6.192;2022-10-16T20:05:56;13.50;99.90
60717;DHT22;46566;52.700;6.192;2022-10-16T20:08:23;13.60;99.90